createdAt,value
2022-07-26T00:00:06.375Z,57.40
2022-07-26T00:05:09.725Z,57.20
2022-07-26T00:10:13.460Z,57.10
2022-07-26T00:15:26.113Z,57.10
2022-07-26T00:26:26.296Z,57.10
2022-07-26T00:31:30.316Z,57.20
2022-07-26T00:36:32.937Z,57.20
2022-07-26T00:41:38.765Z,57.30
2022-07-26T00:46:43.986Z,57.40
2022-07-26T00:51:46.761Z,57.50
2022-07-26T00:56:54.975Z,57.60
2022-07-26T01:02:01.353Z,57.60
2022-07-26T01:07:15.008Z,57.60
2022-07-26T01:12:20.953Z,57.60
2022-07-26T01:17:25.019Z,57.60
2022-07-26T01:22:28.965Z,57.80
2022-07-26T01:27:34.237Z,58.00
2022-07-26T01:32:38.770Z,57.70
2022-07-26T01:37:43.498Z,58.00
2022-07-26T01:42:48.752Z,57.50
2022-07-26T01:47:51.822Z,57.50
2022-07-26T01:52:55.770Z,57.40
2022-07-26T01:58:02.113Z,57.40
2022-07-26T02:03:05.533Z,57.40
2022-07-26T02:08:11.069Z,57.30
2022-07-26T02:13:14.347Z,57.10
2022-07-26T02:18:17.531Z,57.10
2022-07-26T02:23:21.987Z,57.10
2022-07-26T02:28:24.860Z,57.10
2022-07-26T02:33:31.199Z,57.00
2022-07-26T02:38:35.454Z,57.00
2022-07-26T02:43:38.090Z,56.90
2022-07-26T02:48:41.091Z,56.80
2022-07-26T02:53:45.080Z,56.70
2022-07-26T02:58:47.939Z,56.70
2022-07-26T03:03:51.364Z,56.80
2022-07-26T03:08:56.000Z,56.90
2022-07-26T03:13:58.617Z,56.90
2022-07-26T03:19:01.436Z,56.80
2022-07-26T03:24:12.193Z,56.90
2022-07-26T03:29:15.417Z,57.00
2022-07-26T03:34:19.521Z,57.20
2022-07-26T03:39:23.490Z,57.30
2022-07-26T03:44:26.142Z,57.40
2022-07-26T03:49:28.861Z,57.60
2022-07-26T03:54:32.875Z,57.60
2022-07-26T03:59:35.882Z,57.90
2022-07-26T04:04:39.381Z,58.10
2022-07-26T04:09:45.673Z,58.20
2022-07-26T04:14:48.597Z,58.30
2022-07-26T04:19:51.233Z,58.40
2022-07-26T04:24:55.548Z,58.50
2022-07-26T04:29:58.861Z,58.50
2022-07-26T04:35:05.503Z,58.60
2022-07-26T04:40:11.062Z,58.70
2022-07-26T04:45:16.688Z,58.90
2022-07-26T04:50:20.968Z,58.90
2022-07-26T04:55:25.076Z,58.90
2022-07-26T05:00:28.024Z,58.80
2022-07-26T05:05:33.131Z,58.90
2022-07-26T05:10:38.109Z,58.80
2022-07-26T05:15:42.778Z,58.80
2022-07-26T05:34:10.085Z,58.40
2022-07-26T05:39:16.116Z,59.00
2022-07-26T05:44:28.852Z,59.10
2022-07-26T05:49:39.931Z,59.10
2022-07-26T05:54:47.468Z,58.90
2022-07-26T05:59:50.502Z,58.60
2022-07-26T06:04:55.769Z,58.60
2022-07-26T06:09:58.572Z,58.50
2022-07-26T06:15:01.268Z,58.30
2022-07-26T06:20:12.007Z,58.30
2022-07-26T06:25:14.606Z,58.40
2022-07-26T06:30:18.993Z,58.50
2022-07-26T06:35:23.014Z,58.50
2022-07-26T06:40:26.435Z,58.60
2022-07-26T06:45:30.529Z,58.60
2022-07-26T06:50:35.902Z,58.50
2022-07-26T06:55:38.561Z,58.40
2022-07-26T07:00:51.239Z,58.50
2022-07-26T07:05:55.813Z,58.30
2022-07-26T07:10:58.676Z,58.30
2022-07-26T07:16:01.314Z,58.20
2022-07-26T07:21:09.322Z,58.20
2022-07-26T07:26:11.904Z,58.10
2022-07-26T07:31:15.406Z,58.00
2022-07-26T07:36:22.137Z,58.00
2022-07-26T07:41:26.369Z,58.00
2022-07-26T07:46:29.023Z,58.00
2022-07-26T07:51:33.675Z,57.90
2022-07-26T07:56:38.922Z,57.70
2022-07-26T08:01:42.016Z,57.60
2022-07-26T08:06:50.393Z,57.60
2022-07-26T08:11:54.143Z,57.40
2022-07-26T08:16:56.863Z,57.10
2022-07-26T08:22:00.906Z,56.90
2022-07-26T08:27:04.257Z,56.70
2022-07-26T08:32:07.300Z,56.60
2022-07-26T08:37:17.398Z,56.50
2022-07-26T08:42:24.929Z,56.40
2022-07-26T08:47:37.932Z,56.30
2022-07-26T08:52:47.339Z,56.10
2022-07-26T08:57:50.089Z,56.00
2022-07-26T09:02:53.603Z,56.00
2022-07-26T09:07:59.389Z,56.00
2022-07-26T09:13:02.025Z,55.90
2022-07-26T09:18:05.110Z,55.60
2022-07-26T09:23:10.989Z,55.60
2022-07-26T09:28:24.054Z,55.50
2022-07-26T09:33:26.933Z,55.10
2022-07-26T09:38:41.337Z,54.90
2022-07-26T09:43:44.150Z,54.80
2022-07-26T09:54:30.830Z,54.50
2022-07-26T09:59:33.559Z,54.40
2022-07-26T10:04:36.411Z,54.30
2022-07-26T10:09:55.369Z,54.00
2022-07-26T10:14:58.303Z,53.70
2022-07-26T10:20:03.383Z,53.50
2022-07-26T10:25:55.233Z,53.50
2022-07-26T10:31:26.876Z,53.60
2022-07-26T10:36:35.729Z,53.90
2022-07-26T10:41:45.214Z,54.70
2022-07-26T10:47:12.618Z,54.40
2022-07-26T10:52:17.685Z,54.40
2022-07-26T10:57:21.769Z,54.10
2022-07-26T11:02:27.684Z,53.80
2022-07-26T11:08:01.605Z,53.60
2022-07-26T11:13:16.298Z,53.40
2022-07-26T11:18:24.837Z,53.10
2022-07-26T11:23:32.164Z,52.80
2022-07-26T11:29:06.486Z,52.80
2022-07-26T11:34:18.334Z,52.70
2022-07-26T11:39:23.427Z,52.70
2022-07-26T11:44:29.799Z,52.70
2022-07-26T11:49:59.926Z,52.80
2022-07-26T11:54:55.781Z,52.70
2022-07-26T12:00:01.383Z,52.80
2022-07-26T12:05:17.049Z,53.10
2022-07-26T12:10:20.758Z,53.10
2022-07-26T12:15:24.998Z,52.90
2022-07-26T12:20:27.688Z,52.80
2022-07-26T12:25:30.345Z,52.80
2022-07-26T12:30:36.650Z,52.90
2022-07-26T12:35:39.454Z,52.90
2022-07-26T12:40:47.493Z,52.90
2022-07-26T12:45:51.529Z,52.70
2022-07-26T12:50:56.925Z,51.10
2022-07-26T12:56:02.234Z,52.30
2022-07-26T13:01:06.587Z,52.20
2022-07-26T13:06:09.223Z,51.90
2022-07-26T13:11:11.886Z,51.70
2022-07-26T13:16:15.862Z,51.60
2022-07-26T13:21:18.539Z,51.50
2022-07-26T13:26:21.237Z,51.40
2022-07-26T13:31:26.544Z,51.20
2022-07-26T13:36:29.430Z,51.20
2022-07-26T13:41:38.323Z,51.10
2022-07-26T13:46:42.281Z,51.10
2022-07-26T13:51:44.979Z,51.10
2022-07-26T13:56:49.925Z,51.00
2022-07-26T14:01:55.468Z,50.90
2022-07-26T14:06:58.809Z,50.80
2022-07-26T14:12:07.773Z,50.80
2022-07-26T14:17:13.895Z,50.80
2022-07-26T14:22:16.606Z,50.80
2022-07-26T14:27:19.258Z,50.60
2022-07-26T14:32:27.354Z,50.50
2022-07-26T14:37:43.251Z,50.40
2022-07-26T14:42:48.418Z,50.70
2022-07-26T14:47:52.401Z,50.40
2022-07-26T14:52:55.888Z,50.30
2022-07-26T14:57:58.540Z,50.30
2022-07-26T15:03:02.998Z,50.60
